createdAt,value
2018-12-16T00:03:45.993Z,97583.88
2018-12-16T00:14:06.282Z,97583.88
2018-12-16T00:24:27.014Z,97585.22
2018-12-16T00:34:47.374Z,97587.12
2018-12-16T00:45:06.968Z,97580.03
2018-12-16T00:55:26.637Z,97572.25
2018-12-16T01:05:45.818Z,97560.62
2018-12-16T01:16:05.972Z,97555.03
2018-12-16T01:26:25.954Z,97550.82
2018-12-16T01:36:46.975Z,97535.92
2018-12-16T01:47:06.920Z,97520.53
2018-12-16T01:57:27.757Z,97507.20
2018-12-16T02:07:46.904Z,97484.25
2018-12-16T02:18:06.352Z,97474.48
2018-12-16T02:28:26.024Z,97462.00
2018-12-16T02:38:45.220Z,97444.92
2018-12-16T02:49:05.125Z,97439.22
2018-12-16T02:59:24.423Z,97431.10
2018-12-16T03:09:44.365Z,97423.45
2018-12-16T03:20:03.986Z,97420.58
2018-12-16T03:30:23.470Z,97420.05
2018-12-16T03:40:43.420Z,97418.26
2018-12-16T03:51:04.118Z,97419.03
2018-12-16T04:01:23.714Z,97425.34
2018-12-16T04:11:43.384Z,97418.59
2018-12-16T04:22:02.917Z,97404.14
2018-12-16T04:32:22.853Z,97420.53
2018-12-16T04:42:42.671Z,97416.81
2018-12-16T04:53:01.967Z,97408.08
2018-12-16T05:03:21.152Z,97423.81
2018-12-16T05:13:40.943Z,97425.14
2018-12-16T05:24:00.610Z,97403.97
2018-12-16T05:34:19.460Z,97404.80
2018-12-16T05:44:38.873Z,97394.44
2018-12-16T05:54:59.850Z,97398.38
2018-12-16T06:05:22.198Z,97380.95
2018-12-16T06:15:42.095Z,97367.66
2018-12-16T06:26:01.178Z,97346.25
2018-12-16T06:36:20.706Z,97334.72
2018-12-16T06:46:44.803Z,97338.97
2018-12-16T06:57:05.125Z,97323.64
2018-12-16T07:07:24.251Z,97312.58
2018-12-16T07:17:44.359Z,97323.92
2018-12-16T07:28:05.329Z,97309.81
2018-12-16T07:38:24.836Z,97319.95
2018-12-16T07:48:44.157Z,97340.23
2018-12-16T07:59:04.491Z,97329.78
2018-12-16T08:09:25.072Z,97335.59
2018-12-16T08:19:45.560Z,97332.00
2018-12-16T08:30:06.677Z,97320.35
2018-12-16T08:40:26.792Z,97309.58
2018-12-16T08:50:46.040Z,97290.20
2018-12-16T09:01:06.290Z,97273.47
2018-12-16T09:11:25.981Z,97279.41
2018-12-16T09:21:46.520Z,97283.53
2018-12-16T09:32:05.896Z,97247.41
2018-12-16T09:42:25.354Z,97196.86
2018-12-16T09:52:44.472Z,97187.66
2018-12-16T10:03:04.943Z,97177.14
2018-12-16T10:13:23.959Z,97181.52
2018-12-16T10:23:43.249Z,97166.09
2018-12-16T10:34:03.366Z,97154.08
2018-12-16T10:44:23.781Z,97130.97
2018-12-16T10:54:43.624Z,97136.13
2018-12-16T11:05:04.158Z,97138.13
2018-12-16T11:15:24.413Z,97138.41
2018-12-16T11:25:53.241Z,97123.56
2018-12-16T11:36:13.372Z,97123.66
2018-12-16T11:46:32.877Z,97098.83
2018-12-16T11:56:53.260Z,97083.76
2018-12-16T12:07:13.958Z,97079.56
2018-12-16T12:17:34.050Z,97079.56
2018-12-16T12:27:54.991Z,97064.98
2018-12-16T12:38:16.277Z,97060.11
2018-12-16T12:48:37.856Z,97056.91
2018-12-16T12:58:56.941Z,97049.08
2018-12-16T13:09:16.953Z,97061.22
2018-12-16T13:19:37.654Z,97067.09
2018-12-16T13:29:58.015Z,97061.69
2018-12-16T13:40:18.472Z,97085.34
2018-12-16T13:50:39.472Z,97104.68
2018-12-16T14:00:59.377Z,97128.34
2018-12-16T14:11:20.558Z,97157.61
2018-12-16T14:21:40.530Z,97168.05
2018-12-16T14:32:01.016Z,97168.63
2018-12-16T14:42:20.792Z,97179.22
2018-12-16T14:52:41.174Z,97190.77
2018-12-16T15:03:01.577Z,97216.32
2018-12-16T15:13:23.105Z,97201.17
2018-12-16T15:23:43.343Z,97201.17
2018-12-16T15:34:03.365Z,97194.34
2018-12-16T15:44:23.763Z,97202.83
2018-12-16T15:54:43.961Z,97196.81
2018-12-16T16:05:04.729Z,97191.71
2018-12-16T16:15:25.483Z,97200.38
2018-12-16T16:25:46.186Z,97214.83
2018-12-16T16:36:06.040Z,97193.28
2018-12-16T16:46:28.621Z,97193.28
2018-12-16T16:56:48.971Z,97203.27
2018-12-16T17:07:08.917Z,97198.94
2018-12-16T17:17:29.323Z,97204.53
2018-12-16T17:27:48.757Z,97229.04
2018-12-16T17:38:08.432Z,97237.89
2018-12-16T17:48:28.855Z,97248.20
2018-12-16T17:58:48.592Z,97260.20
2018-12-16T18:09:08.630Z,97254.06
2018-12-16T18:19:28.524Z,97254.06
2018-12-16T18:29:48.557Z,97264.83
2018-12-16T18:40:09.427Z,97269.01
2018-12-16T18:50:29.621Z,97280.27
2018-12-16T19:00:50.820Z,97287.22
2018-12-16T19:11:11.762Z,97301.55
2018-12-16T19:21:31.096Z,97299.14
2018-12-16T19:31:51.278Z,97292.29
2018-12-16T19:42:11.984Z,97289.16
2018-12-16T19:52:32.165Z,97298.11
2018-12-16T20:02:54.307Z,97314.77
2018-12-16T20:13:15.025Z,97322.53
2018-12-16T20:23:36.106Z,97316.81
2018-12-16T20:33:57.180Z,97328.58
2018-12-16T20:44:18.019Z,97328.58
2018-12-16T20:54:40.228Z,97339.91
2018-12-16T21:05:02.429Z,97332.82
2018-12-16T21:15:40.521Z,97332.82
2018-12-16T21:26:00.193Z,97323.84
2018-12-16T21:36:20.294Z,97343.55
2018-12-16T21:46:39.977Z,97336.75
2018-12-16T21:56:59.551Z,97342.57
2018-12-16T22:07:19.908Z,97341.16
2018-12-16T22:17:39.438Z,97347.66
2018-12-16T22:27:59.173Z,97333.48
2018-12-16T22:38:19.905Z,97332.88
2018-12-16T22:48:40.553Z,97315.98
2018-12-16T22:58:59.353Z,97315.98
2018-12-16T23:09:18.591Z,97327.03
2018-12-16T23:19:39.765Z,97322.31
2018-12-16T23:30:00.289Z,97310.37
2018-12-16T23:40:19.778Z,97310.37
2018-12-16T23:50:39.747Z,97308.86
